Rechercher aéroport 
image banner adimage banner adimage banner ad
image banner ad

06CA - Sce Solar I

Situé à Yermo, United States

ICAO - 06CA, IATA -

Données fournies par Airmate  

Information générale

Coordonnées: N34°52'8" W116°49'55"
Élévation : 1942 feet MSL.
Variation magnétique : 14° East
Voir autres Aéroports à California

Données opérationnelles

Special qualification required
Heure actuelle UTC:
Heure actuelle locale:
Météo à : KDAG - Barstow-Daggett ( 4 km )
METAR: KDAG 262215Z AUTO 08005KT 10SM VCTS -RA FEW060 FEW070 BKN095 24/22 A2998 RMK AO2 LTG DSNT NE-SE TSE2154 P0006 T02390217 $
TAF: KDAG 262117Z 2621/2718 10008KT P6SM VCTS FEW050CB BKN090 TEMPO 2621/2623 VRB15G25KT -TSRA BKN050 OVC120CB FM270100 25007KT P6SM SCT100 FM271200 11008KT P6SM SCT100
Voir NOTAMs / SUP AIP / TFR affectant cet aéroport [VIEW]
Fréquences de communication: [VIEW]

Pistes:

Coordonnées de l'aéroport

Adresse: Yermo United States

Vue satellite de 06CA